CFG215 EDDF-LFPG
Flight info
| Callsign | CFG215 |
|---|---|
| Flight time | 0h 52m |
| Altitude | 24000 |
| Route | SOBRA2L/18 SOBRA Y180 DIK UN857 TOLVU/N0351F230 DCT RAPOR DCT VEDUS |
| Aircraft | A20N/M-SDE2E3FGHIRWXY/LB1 |
Departure
| Time | 2026-05-01 12:22 |
|---|---|
| Airport | Frankfurt Main Airport (EDDF) |
Arrival
| Time | 2026-05-01 13:14 |
|---|---|
| Airport | Charles de Gaulle International Airport (LFPG) |
| Time | Latitude | Longitude | Altitude | Speed | Heading |
|---|---|---|---|---|---|
| 2026-05-01 11:35 | 50.04711 | 8.57270 | 359 ft | 0 kts | 276° |
| 2026-05-01 12:08 | 50.04709 | 8.57303 | 358 ft | 4 kts | 276° |
| 2026-05-01 12:08 | 50.04707 | 8.57337 | 356 ft | 4 kts | 280° |
| 2026-05-01 12:08 | 50.04698 | 8.57374 | 364 ft | 4 kts | 317° |
| 2026-05-01 12:08 | 50.04675 | 8.57391 | 357 ft | 4 kts | 358° |
| 2026-05-01 12:09 | 50.04653 | 8.57391 | 356 ft | 3 kts | 359° |
| 2026-05-01 12:09 | 50.04627 | 8.57395 | 357 ft | 4 kts | 338° |
| 2026-05-01 12:09 | 50.04606 | 8.57417 | 360 ft | 4 kts | 303° |
| 2026-05-01 12:09 | 50.04596 | 8.57455 | 360 ft | 4 kts | 281° |
| 2026-05-01 12:10 | 50.04589 | 8.57494 | 361 ft | 4 kts | 315° |
| 2026-05-01 12:10 | 50.04585 | 8.57501 | 367 ft | 1 kts | 341° |
| 2026-05-01 12:13 | 50.04586 | 8.57500 | 363 ft | 2 kts | 341° |
| 2026-05-01 12:14 | 50.04599 | 8.57454 | 361 ft | 9 kts | 271° |
| 2026-05-01 12:14 | 50.04575 | 8.57345 | 359 ft | 13 kts | 250° |
| 2026-05-01 12:14 | 50.04539 | 8.57194 | 361 ft | 17 kts | 249° |
| 2026-05-01 12:14 | 50.04494 | 8.57001 | 359 ft | 21 kts | 250° |
| 2026-05-01 12:15 | 50.04461 | 8.56866 | 361 ft | 13 kts | 249° |
| 2026-05-01 12:15 | 50.04423 | 8.56706 | 360 ft | 18 kts | 249° |
| 2026-05-01 12:15 | 50.04373 | 8.56497 | 358 ft | 23 kts | 250° |
| 2026-05-01 12:15 | 50.04315 | 8.56257 | 356 ft | 25 kts | 250° |
| 2026-05-01 12:16 | 50.04254 | 8.56001 | 362 ft | 27 kts | 249° |
| 2026-05-01 12:16 | 50.04187 | 8.55717 | 357 ft | 25 kts | 249° |
| 2026-05-01 12:16 | 50.04133 | 8.55495 | 358 ft | 20 kts | 250° |
| 2026-05-01 12:16 | 50.04082 | 8.55279 | 361 ft | 22 kts | 249° |
| 2026-05-01 12:17 | 50.04024 | 8.55040 | 361 ft | 25 kts | 249° |
| 2026-05-01 12:17 | 50.03965 | 8.54789 | 356 ft | 27 kts | 250° |
| 2026-05-01 12:17 | 50.03895 | 8.54497 | 353 ft | 31 kts | 250° |
| 2026-05-01 12:17 | 50.03853 | 8.54352 | 350 ft | 6 kts | 234° |
| 2026-05-01 12:18 | 50.03819 | 8.54280 | 350 ft | 11 kts | 236° |
| 2026-05-01 12:18 | 50.03783 | 8.54150 | 350 ft | 15 kts | 250° |
| 2026-05-01 12:18 | 50.03744 | 8.53990 | 352 ft | 14 kts | 249° |
| 2026-05-01 12:18 | 50.03703 | 8.53819 | 345 ft | 19 kts | 249° |
| 2026-05-01 12:19 | 50.03667 | 8.53671 | 348 ft | 13 kts | 249° |
| 2026-05-01 12:19 | 50.03629 | 8.53519 | 338 ft | 17 kts | 249° |
| 2026-05-01 12:19 | 50.03581 | 8.53322 | 335 ft | 22 kts | 249° |
| 2026-05-01 12:19 | 50.03528 | 8.53096 | 334 ft | 22 kts | 249° |
| 2026-05-01 12:20 | 50.03478 | 8.52899 | 336 ft | 19 kts | 244° |
| 2026-05-01 12:20 | 50.03438 | 8.52745 | 333 ft | 14 kts | 250° |
| 2026-05-01 12:20 | 50.03411 | 8.52637 | 334 ft | 11 kts | 246° |
| 2026-05-01 12:20 | 50.03361 | 8.52596 | 335 ft | 6 kts | 177° |
| 2026-05-01 12:21 | 50.03342 | 8.52596 | 334 ft | 0 kts | 181° |
| 2026-05-01 12:21 | 50.03261 | 8.52594 | 331 ft | 35 kts | 180° |
| 2026-05-01 12:21 | 50.02770 | 8.52599 | 333 ft | 104 kts | 179° |
| 2026-05-01 12:21 | 50.01864 | 8.52606 | 335 ft | 154 kts | 180° |
| 2026-05-01 12:22 | 50.00712 | 8.52546 | 727 ft | 166 kts | 178° |
| 2026-05-01 12:22 | 49.99600 | 8.52459 | 1553 ft | 155 kts | 177° |
| 2026-05-01 12:22 | 49.98546 | 8.52405 | 2470 ft | 149 kts | 177° |
| 2026-05-01 12:22 | 49.97492 | 8.52347 | 2974 ft | 157 kts | 177° |
| 2026-05-01 12:23 | 49.96351 | 8.52360 | 3377 ft | 173 kts | 171° |
| 2026-05-01 12:23 | 49.95085 | 8.52591 | 3817 ft | 193 kts | 169° |
| 2026-05-01 12:23 | 49.93697 | 8.52863 | 4368 ft | 211 kts | 171° |
| 2026-05-01 12:23 | 49.92177 | 8.53088 | 5195 ft | 222 kts | 174° |
| 2026-05-01 12:24 | 49.90640 | 8.53247 | 6442 ft | 222 kts | 175° |
| 2026-05-01 12:24 | 49.89065 | 8.53391 | 7407 ft | 231 kts | 175° |
| 2026-05-01 12:24 | 49.87445 | 8.53343 | 8390 ft | 236 kts | 185° |
| 2026-05-01 12:24 | 49.85818 | 8.52728 | 8957 ft | 244 kts | 198° |
| 2026-05-01 12:25 | 49.84162 | 8.51756 | 9235 ft | 271 kts | 198° |
| 2026-05-01 12:25 | 49.80494 | 8.49645 | 10622 ft | 284 kts | 198° |
| 2026-05-01 12:25 | 49.78668 | 8.48264 | 11252 ft | 307 kts | 213° |
| 2026-05-01 12:26 | 49.77139 | 8.45757 | 11619 ft | 337 kts | 236° |
| 2026-05-01 12:26 | 49.76307 | 8.38483 | 13034 ft | 364 kts | 280° |
| 2026-05-01 12:26 | 49.76900 | 8.34593 | 13941 ft | 370 kts | 285° |
| 2026-05-01 12:27 | 49.77580 | 8.30713 | 14771 ft | 375 kts | 285° |
| 2026-05-01 12:27 | 49.78932 | 8.22851 | 16417 ft | 382 kts | 284° |
| 2026-05-01 12:28 | 49.80242 | 8.14789 | 18008 ft | 391 kts | 284° |
| 2026-05-01 12:28 | 49.80893 | 8.10690 | 18778 ft | 395 kts | 283° |
| 2026-05-01 12:28 | 49.82202 | 8.02411 | 20149 ft | 402 kts | 283° |
| 2026-05-01 12:29 | 49.82868 | 7.98185 | 20818 ft | 406 kts | 283° |
| 2026-05-01 12:29 | 49.83537 | 7.93919 | 21528 ft | 409 kts | 284° |
| 2026-05-01 12:29 | 49.84890 | 7.85274 | 22833 ft | 417 kts | 284° |
| 2026-05-01 12:30 | 49.86259 | 7.76480 | 24058 ft | 423 kts | 284° |
| 2026-05-01 12:30 | 49.86957 | 7.72033 | 24244 ft | 425 kts | 284° |
| 2026-05-01 12:30 | 49.87654 | 7.67588 | 24302 ft | 424 kts | 284° |
| 2026-05-01 12:31 | 49.88344 | 7.63149 | 24324 ft | 423 kts | 284° |
| 2026-05-01 12:31 | 49.89026 | 7.58728 | 24311 ft | 421 kts | 284° |
| 2026-05-01 12:31 | 49.89707 | 7.54305 | 24320 ft | 423 kts | 284° |
| 2026-05-01 12:31 | 49.90388 | 7.49865 | 24321 ft | 423 kts | 284° |
| 2026-05-01 12:32 | 49.91067 | 7.45427 | 24329 ft | 422 kts | 284° |
| 2026-05-01 12:32 | 49.92420 | 7.36553 | 24312 ft | 423 kts | 284° |
| 2026-05-01 12:32 | 49.93096 | 7.32109 | 24317 ft | 422 kts | 284° |
| 2026-05-01 12:33 | 49.93769 | 7.27667 | 24321 ft | 423 kts | 284° |
| 2026-05-01 12:33 | 49.94441 | 7.23221 | 24311 ft | 424 kts | 284° |
| 2026-05-01 12:33 | 49.95113 | 7.18759 | 24312 ft | 424 kts | 283° |
| 2026-05-01 12:33 | 49.95781 | 7.14309 | 24320 ft | 424 kts | 283° |
| 2026-05-01 12:34 | 49.96449 | 7.09841 | 24313 ft | 425 kts | 283° |
| 2026-05-01 12:34 | 49.97116 | 7.05373 | 24310 ft | 425 kts | 283° |
| 2026-05-01 12:34 | 49.97781 | 7.00906 | 24311 ft | 423 kts | 283° |
| 2026-05-01 12:34 | 49.98443 | 6.96447 | 24295 ft | 425 kts | 283° |
| 2026-05-01 12:35 | 49.99008 | 6.91938 | 24297 ft | 426 kts | 278° |
| 2026-05-01 12:35 | 49.99216 | 6.87352 | 24301 ft | 424 kts | 270° |
| 2026-05-01 12:35 | 49.99104 | 6.82778 | 24296 ft | 424 kts | 267° |
| 2026-05-01 12:35 | 49.98959 | 6.78189 | 24298 ft | 426 kts | 267° |
| 2026-05-01 12:36 | 49.98824 | 6.73597 | 24300 ft | 426 kts | 267° |
| 2026-05-01 12:36 | 49.98691 | 6.69066 | 24295 ft | 426 kts | 267° |
| 2026-05-01 12:36 | 49.98552 | 6.64467 | 24300 ft | 426 kts | 267° |
| 2026-05-01 12:36 | 49.98353 | 6.59884 | 24292 ft | 425 kts | 262° |
| 2026-05-01 12:37 | 49.97801 | 6.55378 | 24297 ft | 425 kts | 255° |
| 2026-05-01 12:37 | 49.96866 | 6.51022 | 24288 ft | 424 kts | 247° |
| 2026-05-01 12:37 | 49.95684 | 6.46831 | 24286 ft | 425 kts | 245° |
| 2026-05-01 12:37 | 49.94500 | 6.42630 | 24294 ft | 423 kts | 245° |
| 2026-05-01 12:38 | 49.93327 | 6.38446 | 24292 ft | 423 kts | 245° |
| 2026-05-01 12:38 | 49.92150 | 6.34252 | 24287 ft | 423 kts | 245° |
| 2026-05-01 12:38 | 49.90975 | 6.30073 | 24276 ft | 423 kts | 245° |
| 2026-05-01 12:38 | 49.89789 | 6.25883 | 24273 ft | 424 kts | 245° |
| 2026-05-01 12:39 | 49.88560 | 6.21737 | 24275 ft | 422 kts | 245° |
| 2026-05-01 12:39 | 49.87378 | 6.17576 | 24288 ft | 422 kts | 246° |
| 2026-05-01 12:39 | 49.86137 | 6.13456 | 24286 ft | 421 kts | 240° |
| 2026-05-01 12:39 | 49.84590 | 6.09609 | 24291 ft | 421 kts | 233° |
| 2026-05-01 12:40 | 49.82888 | 6.05918 | 24290 ft | 421 kts | 233° |
| 2026-05-01 12:40 | 49.81188 | 6.02226 | 24293 ft | 421 kts | 233° |
| 2026-05-01 12:40 | 49.79491 | 5.98538 | 24290 ft | 420 kts | 233° |
| 2026-05-01 12:40 | 49.77796 | 5.94857 | 24284 ft | 420 kts | 233° |
| 2026-05-01 12:41 | 49.76100 | 5.91179 | 24285 ft | 420 kts | 233° |
| 2026-05-01 12:41 | 49.74530 | 5.87363 | 24289 ft | 421 kts | 240° |
| 2026-05-01 12:41 | 49.73286 | 5.83261 | 24280 ft | 422 kts | 248° |
| 2026-05-01 12:41 | 49.72300 | 5.78997 | 24275 ft | 421 kts | 250° |
| 2026-05-01 12:42 | 49.71322 | 5.74733 | 24277 ft | 421 kts | 249° |
| 2026-05-01 12:42 | 49.70337 | 5.70478 | 24280 ft | 421 kts | 249° |
| 2026-05-01 12:42 | 49.69349 | 5.66232 | 24281 ft | 420 kts | 249° |
| 2026-05-01 12:42 | 49.68360 | 5.61991 | 24276 ft | 421 kts | 249° |
| 2026-05-01 12:43 | 49.67367 | 5.57743 | 24267 ft | 421 kts | 249° |
| 2026-05-01 12:43 | 49.66370 | 5.53486 | 24264 ft | 421 kts | 249° |
| 2026-05-01 12:43 | 49.65373 | 5.49240 | 24267 ft | 421 kts | 249° |
| 2026-05-01 12:43 | 49.64376 | 5.45000 | 24275 ft | 420 kts | 249° |
| 2026-05-01 12:44 | 49.63377 | 5.40761 | 24262 ft | 420 kts | 249° |
| 2026-05-01 12:44 | 49.62378 | 5.36530 | 24267 ft | 420 kts | 249° |
| 2026-05-01 12:44 | 49.60522 | 5.27988 | 24264 ft | 420 kts | 251° |
| 2026-05-01 12:45 | 49.59269 | 5.19195 | 24265 ft | 422 kts | 264° |
| 2026-05-01 12:45 | 49.59179 | 5.14739 | 24267 ft | 422 kts | 270° |
| 2026-05-01 12:45 | 49.59240 | 5.10209 | 24267 ft | 423 kts | 270° |
| 2026-05-01 12:46 | 49.59286 | 5.05681 | 24266 ft | 423 kts | 270° |
| 2026-05-01 12:46 | 49.59324 | 5.01152 | 24262 ft | 422 kts | 269° |
| 2026-05-01 12:46 | 49.59358 | 4.96622 | 24264 ft | 423 kts | 269° |
| 2026-05-01 12:46 | 49.59392 | 4.92095 | 24259 ft | 422 kts | 269° |
| 2026-05-01 12:47 | 49.59422 | 4.87573 | 24263 ft | 422 kts | 269° |
| 2026-05-01 12:47 | 49.59451 | 4.83053 | 24254 ft | 422 kts | 269° |
| 2026-05-01 12:47 | 49.59477 | 4.78529 | 24259 ft | 422 kts | 269° |
| 2026-05-01 12:47 | 49.59502 | 4.74007 | 24261 ft | 422 kts | 269° |
| 2026-05-01 12:48 | 49.59526 | 4.69489 | 24256 ft | 422 kts | 269° |
| 2026-05-01 12:48 | 49.59548 | 4.64971 | 24254 ft | 422 kts | 269° |
| 2026-05-01 12:48 | 49.59568 | 4.60456 | 24258 ft | 422 kts | 269° |
| 2026-05-01 12:48 | 49.59587 | 4.55930 | 24256 ft | 422 kts | 269° |
| 2026-05-01 12:49 | 49.59603 | 4.51410 | 24256 ft | 422 kts | 269° |
| 2026-05-01 12:49 | 49.59613 | 4.48414 | 24251 ft | 422 kts | 269° |
| 2026-05-01 12:49 | 49.59627 | 4.43888 | 24255 ft | 422 kts | 269° |
| 2026-05-01 12:49 | 49.59640 | 4.39369 | 24243 ft | 422 kts | 268° |
| 2026-05-01 12:50 | 49.59651 | 4.34845 | 24063 ft | 422 kts | 268° |
| 2026-05-01 12:50 | 49.59659 | 4.30331 | 23832 ft | 421 kts | 268° |
| 2026-05-01 12:50 | 49.59665 | 4.25826 | 23557 ft | 419 kts | 268° |
| 2026-05-01 12:50 | 49.59670 | 4.21352 | 23285 ft | 417 kts | 268° |
| 2026-05-01 12:51 | 49.59674 | 4.16895 | 23018 ft | 415 kts | 268° |
| 2026-05-01 12:51 | 49.59673 | 4.12470 | 22745 ft | 413 kts | 266° |
| 2026-05-01 12:51 | 49.58416 | 4.04021 | 22220 ft | 402 kts | 242° |
| 2026-05-01 12:52 | 49.57001 | 4.00339 | 21960 ft | 398 kts | 234° |
| 2026-05-01 12:52 | 49.53990 | 3.93225 | 21451 ft | 395 kts | 234° |
| 2026-05-01 12:52 | 49.52501 | 3.89693 | 21194 ft | 392 kts | 234° |
| 2026-05-01 12:53 | 49.49542 | 3.82688 | 20694 ft | 389 kts | 234° |
| 2026-05-01 12:53 | 49.48163 | 3.79117 | 20442 ft | 389 kts | 240° |
| 2026-05-01 12:53 | 49.47092 | 3.75294 | 19995 ft | 391 kts | 248° |
| 2026-05-01 12:54 | 49.46344 | 3.71275 | 19432 ft | 391 kts | 253° |
| 2026-05-01 12:54 | 49.45019 | 3.63244 | 18322 ft | 383 kts | 253° |
| 2026-05-01 12:54 | 49.44360 | 3.59316 | 17900 ft | 375 kts | 253° |
| 2026-05-01 12:55 | 49.43048 | 3.51589 | 17289 ft | 373 kts | 252° |
| 2026-05-01 12:55 | 49.42391 | 3.47745 | 17235 ft | 372 kts | 252° |
| 2026-05-01 12:55 | 49.41571 | 3.44003 | 17228 ft | 371 kts | 244° |
| 2026-05-01 12:56 | 49.40460 | 3.40426 | 17228 ft | 370 kts | 241° |
| 2026-05-01 12:56 | 49.39328 | 3.36891 | 17123 ft | 368 kts | 241° |
| 2026-05-01 12:56 | 49.38208 | 3.33370 | 16745 ft | 366 kts | 241° |
| 2026-05-01 12:56 | 49.37096 | 3.29872 | 16018 ft | 370 kts | 241° |
| 2026-05-01 12:57 | 49.35952 | 3.26280 | 15036 ft | 379 kts | 241° |
| 2026-05-01 12:57 | 49.33634 | 3.19015 | 13777 ft | 374 kts | 241° |
| 2026-05-01 12:57 | 49.32507 | 3.15480 | 13378 ft | 364 kts | 241° |
| 2026-05-01 12:58 | 49.31410 | 3.12052 | 13108 ft | 352 kts | 241° |
| 2026-05-01 12:58 | 49.30339 | 3.08712 | 12639 ft | 346 kts | 241° |
| 2026-05-01 12:58 | 49.29290 | 3.05451 | 12420 ft | 335 kts | 241° |
| 2026-05-01 12:59 | 49.27317 | 2.99308 | 12175 ft | 308 kts | 240° |
| 2026-05-01 12:59 | 49.26387 | 2.96421 | 12000 ft | 297 kts | 240° |
| 2026-05-01 12:59 | 49.24564 | 2.90795 | 11266 ft | 293 kts | 241° |
| 2026-05-01 13:00 | 49.22762 | 2.85239 | 10536 ft | 290 kts | 241° |
| 2026-05-01 13:00 | 49.21868 | 2.82483 | 10189 ft | 289 kts | 241° |
| 2026-05-01 13:01 | 49.20106 | 2.77061 | 9446 ft | 285 kts | 241° |
| 2026-05-01 13:01 | 49.19228 | 2.74363 | 9082 ft | 283 kts | 241° |
| 2026-05-01 13:01 | 49.17486 | 2.69017 | 8401 ft | 279 kts | 241° |
| 2026-05-01 13:02 | 49.16637 | 2.66408 | 8018 ft | 277 kts | 241° |
| 2026-05-01 13:07 | 49.11926 | 2.10791 | 3999 ft | 203 kts | 183° |
| 2026-05-01 13:07 | 49.10608 | 2.11189 | 3996 ft | 189 kts | 156° |
| 2026-05-01 13:07 | 49.09496 | 2.12234 | 4006 ft | 192 kts | 144° |
| 2026-05-01 13:08 | 49.08478 | 2.13545 | 4004 ft | 190 kts | 139° |
| 2026-05-01 13:08 | 49.07513 | 2.14925 | 3997 ft | 191 kts | 138° |
| 2026-05-01 13:08 | 49.06554 | 2.16321 | 4000 ft | 191 kts | 138° |
| 2026-05-01 13:08 | 49.05587 | 2.17713 | 3996 ft | 192 kts | 139° |
| 2026-05-01 13:09 | 49.04615 | 2.19089 | 4004 ft | 191 kts | 139° |
| 2026-05-01 13:09 | 49.03635 | 2.20459 | 3995 ft | 191 kts | 139° |
| 2026-05-01 13:09 | 49.02655 | 2.21821 | 3992 ft | 190 kts | 139° |
| 2026-05-01 13:09 | 49.01734 | 2.23267 | 3989 ft | 192 kts | 125° |
| 2026-05-01 13:10 | 49.01240 | 2.25163 | 3888 ft | 195 kts | 102° |
| 2026-05-01 13:10 | 49.01156 | 2.27244 | 3628 ft | 198 kts | 90° |
| 2026-05-01 13:10 | 49.01246 | 2.29346 | 3357 ft | 199 kts | 86° |
| 2026-05-01 13:10 | 49.01364 | 2.31447 | 3123 ft | 198 kts | 87° |
| 2026-05-01 13:11 | 49.01472 | 2.33502 | 2844 ft | 192 kts | 87° |
| 2026-05-01 13:11 | 49.01577 | 2.35478 | 2579 ft | 180 kts | 88° |
| 2026-05-01 13:11 | 49.01674 | 2.37304 | 2345 ft | 166 kts | 87° |
| 2026-05-01 13:11 | 49.01755 | 2.38995 | 2138 ft | 154 kts | 87° |
| 2026-05-01 13:12 | 49.01849 | 2.40561 | 1928 ft | 142 kts | 88° |
| 2026-05-01 13:12 | 49.01922 | 2.42006 | 1739 ft | 132 kts | 88° |
| 2026-05-01 13:12 | 49.01994 | 2.43404 | 1574 ft | 137 kts | 88° |
| 2026-05-01 13:12 | 49.02070 | 2.44817 | 1400 ft | 131 kts | 88° |
| 2026-05-01 13:13 | 49.02143 | 2.46194 | 1226 ft | 131 kts | 89° |
| 2026-05-01 13:13 | 49.02217 | 2.47613 | 1043 ft | 133 kts | 88° |
| 2026-05-01 13:13 | 49.02289 | 2.48970 | 877 ft | 130 kts | 88° |
| 2026-05-01 13:13 | 49.02359 | 2.50348 | 678 ft | 129 kts | 87° |
| 2026-05-01 13:14 | 49.02427 | 2.51696 | 492 ft | 128 kts | 85° |
| 2026-05-01 13:14 | 49.02503 | 2.53028 | 357 ft | 121 kts | 86° |
| 2026-05-01 13:14 | 49.02550 | 2.53946 | 355 ft | 45 kts | 85° |
| 2026-05-01 13:14 | 49.02565 | 2.54203 | 354 ft | 22 kts | 85° |
| 2026-05-01 13:15 | 49.02564 | 2.54452 | 359 ft | 25 kts | 102° |
| 2026-05-01 13:15 | 49.02526 | 2.54672 | 353 ft | 18 kts | 104° |
| 2026-05-01 13:15 | 49.02493 | 2.54859 | 361 ft | 18 kts | 105° |
| 2026-05-01 13:15 | 49.02464 | 2.55009 | 362 ft | 13 kts | 108° |
| 2026-05-01 13:16 | 49.02448 | 2.55114 | 359 ft | 8 kts | 99° |
| 2026-05-01 13:16 | 49.02445 | 2.55157 | 356 ft | 0 kts | 94° |